sensor_id;sensor_type;location;lat;lon;timestamp;P1;durP1;ratioP1;P2;durP2;ratioP2
69087;SDS011;56190;43.562;5.036;2023-04-03T00:02:21;0.50;;;0.20;;
69087;SDS011;56190;43.562;5.036;2023-04-03T00:04:46;0.20;;;0.20;;
69087;SDS011;56190;43.562;5.036;2023-04-03T00:07:11;0.40;;;0.30;;
69087;SDS011;56190;43.562;5.036;2023-04-03T00:09:37;0.45;;;0.30;;
69087;SDS011;56190;43.562;5.036;2023-04-03T00:12:02;0.30;;;0.30;;
69087;SDS011;56190;43.562;5.036;2023-04-03T00:14:28;0.25;;;0.25;;
69087;SDS011;56190;43.562;5.036;2023-04-03T00:16:53;1.55;;;0.35;;
69087;SDS011;56190;43.562;5.036;2023-04-03T00:19:18;0.40;;;0.40;;
69087;SDS011;56190;43.562;5.036;2023-04-03T00:21:44;0.35;;;0.35;;
69087;SDS011;56190;43.562;5.036;2023-04-03T00:24:09;0.50;;;0.47;;
69087;SDS011;56190;43.562;5.036;2023-04-03T00:26:34;0.57;;;0.40;;
69087;SDS011;56190;43.562;5.036;2023-04-03T00:29:00;0.82;;;0.60;;
69087;SDS011;56190;43.562;5.036;2023-04-03T00:31:25;0.50;;;0.50;;
69087;SDS011;56190;43.562;5.036;2023-04-03T00:33:50;1.27;;;0.50;;
69087;SDS011;56190;43.562;5.036;2023-04-03T00:36:15;0.77;;;0.50;;
69087;SDS011;56190;43.562;5.036;2023-04-03T00:38:40;0.52;;;0.52;;
69087;SDS011;56190;43.562;5.036;2023-04-03T00:41:06;1.20;;;0.70;;
69087;SDS011;56190;43.562;5.036;2023-04-03T00:43:31;1.00;;;0.65;;
69087;SDS011;56190;43.562;5.036;2023-04-03T00:45:57;0.50;;;0.45;;
69087;SDS011;56190;43.562;5.036;2023-04-03T00:48:28;1.35;;;0.90;;
69087;SDS011;56190;43.562;5.036;2023-04-03T00:50:54;0.80;;;0.55;;
69087;SDS011;56190;43.562;5.036;2023-04-03T00:53:22;0.95;;;0.60;;
69087;SDS011;56190;43.562;5.036;2023-04-03T00:55:48;0.60;;;0.60;;
69087;SDS011;56190;43.562;5.036;2023-04-03T00:58:14;0.90;;;0.77;;
69087;SDS011;56190;43.562;5.036;2023-04-03T01:00:42;0.55;;;0.55;;
69087;SDS011;56190;43.562;5.036;2023-04-03T01:03:08;0.80;;;0.80;;
69087;SDS011;56190;43.562;5.036;2023-04-03T01:05:34;0.75;;;0.70;;
69087;SDS011;56190;43.562;5.036;2023-04-03T01:08:00;1.05;;;0.90;;
69087;SDS011;56190;43.562;5.036;2023-04-03T01:10:25;0.60;;;0.60;;
69087;SDS011;56190;43.562;5.036;2023-04-03T01:12:50;0.90;;;0.75;;
69087;SDS011;56190;43.562;5.036;2023-04-03T01:15:18;0.70;;;0.60;;
69087;SDS011;56190;43.562;5.036;2023-04-03T01:17:45;0.90;;;0.75;;
69087;SDS011;56190;43.562;5.036;2023-04-03T01:25:25;1.58;;;0.60;;
69087;SDS011;56190;43.562;5.036;2023-04-03T01:27:50;0.68;;;0.60;;
69087;SDS011;56190;43.562;5.036;2023-04-03T01:30:17;1.20;;;1.10;;
69087;SDS011;56190;43.562;5.036;2023-04-03T01:32:42;0.90;;;0.77;;
69087;SDS011;56190;43.562;5.036;2023-04-03T01:35:08;1.05;;;0.65;;
69087;SDS011;56190;43.562;5.036;2023-04-03T01:37:34;0.93;;;0.90;;
69087;SDS011;56190;43.562;5.036;2023-04-03T01:39:59;1.00;;;0.75;;
69087;SDS011;56190;43.562;5.036;2023-04-03T01:42:24;0.50;;;0.50;;
69087;SDS011;56190;43.562;5.036;2023-04-03T01:44:50;0.98;;;0.88;;
69087;SDS011;56190;43.562;5.036;2023-04-03T01:47:15;1.30;;;0.90;;
69087;SDS011;56190;43.562;5.036;2023-04-03T01:49:40;1.50;;;1.00;;
69087;SDS011;56190;43.562;5.036;2023-04-03T01:52:05;1.75;;;1.05;;
69087;SDS011;56190;43.562;5.036;2023-04-03T01:54:31;1.10;;;1.00;;
69087;SDS011;56190;43.562;5.036;2023-04-03T01:56:56;1.38;;;1.10;;
69087;SDS011;56190;43.562;5.036;2023-04-03T01:59:21;1.45;;;0.80;;
69087;SDS011;56190;43.562;5.036;2023-04-03T02:01:47;1.20;;;1.10;;
69087;SDS011;56190;43.562;5.036;2023-04-03T02:04:12;2.38;;;1.00;;
69087;SDS011;56190;43.562;5.036;2023-04-03T02:06:37;1.52;;;0.90;;
69087;SDS011;56190;43.562;5.036;2023-04-03T02:09:03;3.42;;;1.02;;
69087;SDS011;56190;43.562;5.036;2023-04-03T02:11:29;1.38;;;1.00;;
69087;SDS011;56190;43.562;5.036;2023-04-03T02:13:54;1.45;;;1.08;;
69087;SDS011;56190;43.562;5.036;2023-04-03T02:16:19;1.60;;;1.15;;
69087;SDS011;56190;43.562;5.036;2023-04-03T02:18:44;1.25;;;1.10;;
69087;SDS011;56190;43.562;5.036;2023-04-03T02:21:10;1.25;;;0.90;;
69087;SDS011;56190;43.562;5.036;2023-04-03T02:23:35;1.10;;;1.00;;
69087;SDS011;56190;43.562;5.036;2023-04-03T02:26:06;1.63;;;1.00;;
69087;SDS011;56190;43.562;5.036;2023-04-03T02:28:32;2.13;;;1.20;;
69087;SDS011;56190;43.562;5.036;2023-04-03T02:30:57;1.27;;;1.17;;
69087;SDS011;56190;43.562;5.036;2023-04-03T02:33:22;1.42;;;1.20;;
69087;SDS011;56190;43.562;5.036;2023-04-03T02:35:51;1.60;;;1.13;;
69087;SDS011;56190;43.562;5.036;2023-04-03T02:38:18;1.27;;;1.17;;
69087;SDS011;56190;43.562;5.036;2023-04-03T02:40:43;1.30;;;1.20;;
69087;SDS011;56190;43.562;5.036;2023-04-03T02:43:08;1.15;;;1.00;;
69087;SDS011;56190;43.562;5.036;2023-04-03T02:45:33;1.38;;;0.90;;
69087;SDS011;56190;43.562;5.036;2023-04-03T02:47:59;1.63;;;0.85;;
69087;SDS011;56190;43.562;5.036;2023-04-03T02:50:24;0.98;;;0.88;;
69087;SDS011;56190;43.562;5.036;2023-04-03T02:52:49;1.38;;;1.00;;
69087;SDS011;56190;43.562;5.036;2023-04-03T02:55:15;0.85;;;0.73;;
69087;SDS011;56190;43.562;5.036;2023-04-03T02:57:41;1.55;;;0.95;;
69087;SDS011;56190;43.562;5.036;2023-04-03T03:00:06;0.80;;;0.68;;
69087;SDS011;56190;43.562;5.036;2023-04-03T03:02:31;0.70;;;0.70;;
69087;SDS011;56190;43.562;5.036;2023-04-03T03:04:57;1.20;;;0.75;;
69087;SDS011;56190;43.562;5.036;2023-04-03T03:07:22;1.00;;;0.80;;
69087;SDS011;56190;43.562;5.036;2023-04-03T03:09:47;0.90;;;0.70;;
69087;SDS011;56190;43.562;5.036;2023-04-03T03:12:12;1.20;;;0.60;;
69087;SDS011;56190;43.562;5.036;2023-04-03T03:14:38;1.27;;;0.70;;
69087;SDS011;56190;43.562;5.036;2023-04-03T03:17:03;1.00;;;0.90;;
69087;SDS011;56190;43.562;5.036;2023-04-03T03:19:28;1.10;;;1.00;;
69087;SDS011;56190;43.562;5.036;2023-04-03T03:21:54;2.25;;;0.82;;
69087;SDS011;56190;43.562;5.036;2023-04-03T03:24:20;0.70;;;0.70;;
69087;SDS011;56190;43.562;5.036;2023-04-03T03:26:45;0.75;;;0.70;;
69087;SDS011;56190;43.562;5.036;2023-04-03T03:29:10;0.57;;;0.50;;
69087;SDS011;56190;43.562;5.036;2023-04-03T03:31:35;0.55;;;0.55;;
69087;SDS011;56190;43.562;5.036;2023-04-03T03:34:01;2.25;;;0.80;;
69087;SDS011;56190;43.562;5.036;2023-04-03T03:36:26;0.50;;;0.50;;
69087;SDS011;56190;43.562;5.036;2023-04-03T03:38:51;1.13;;;0.50;;
69087;SDS011;56190;43.562;5.036;2023-04-03T03:41:17;0.50;;;0.50;;
69087;SDS011;56190;43.562;5.036;2023-04-03T03:43:42;0.60;;;0.60;;
69087;SDS011;56190;43.562;5.036;2023-04-03T03:46:07;1.02;;;0.68;;
69087;SDS011;56190;43.562;5.036;2023-04-03T03:48:32;0.60;;;0.60;;
69087;SDS011;56190;43.562;5.036;2023-04-03T03:50:58;0.98;;;0.73;;
69087;SDS011;56190;43.562;5.036;2023-04-03T03:53:23;0.60;;;0.60;;
69087;SDS011;56190;43.562;5.036;2023-04-03T03:55:48;0.90;;;0.80;;
69087;SDS011;56190;43.562;5.036;2023-04-03T03:58:14;1.40;;;0.75;;
69087;SDS011;56190;43.562;5.036;2023-04-03T04:00:39;0.82;;;0.80;;
69087;SDS011;56190;43.562;5.036;2023-04-03T04:03:04;1.23;;;0.60;;
69087;SDS011;56190;43.562;5.036;2023-04-03T04:05:30;1.67;;;0.70;;
69087;SDS011;56190;43.562;5.036;2023-04-03T04:07:55;0.82;;;0.82;;
69087;SDS011;56190;43.562;5.036;2023-04-03T04:10:21;1.10;;;0.80;;
69087;SDS011;56190;43.562;5.036;2023-04-03T04:12:46;0.60;;;0.60;;
69087;SDS011;56190;43.562;5.036;2023-04-03T04:15:11;0.77;;;0.77;;
69087;SDS011;56190;43.562;5.036;2023-04-03T04:17:37;1.25;;;0.70;;
69087;SDS011;56190;43.562;5.036;2023-04-03T04:20:03;1.02;;;0.82;;
69087;SDS011;56190;43.562;5.036;2023-04-03T04:22:29;0.70;;;0.60;;
69087;SDS011;56190;43.562;5.036;2023-04-03T04:24:55;1.13;;;0.55;;
69087;SDS011;56190;43.562;5.036;2023-04-03T04:27:20;0.50;;;0.45;;
69087;SDS011;56190;43.562;5.036;2023-04-03T04:29:45;0.80;;;0.70;;
69087;SDS011;56190;43.562;5.036;2023-04-03T04:32:11;0.85;;;0.70;;
69087;SDS011;56190;43.562;5.036;2023-04-03T04:34:36;1.48;;;0.70;;
69087;SDS011;56190;43.562;5.036;2023-04-03T04:37:02;1.08;;;0.70;;
69087;SDS011;56190;43.562;5.036;2023-04-03T04:39:27;0.75;;;0.60;;
69087;SDS011;56190;43.562;5.036;2023-04-03T04:41:52;1.08;;;0.63;;
69087;SDS011;56190;43.562;5.036;2023-04-03T04:44:17;0.70;;;0.70;;
69087;SDS011;56190;43.562;5.036;2023-04-03T04:46:43;0.60;;;0.60;;
69087;SDS011;56190;43.562;5.036;2023-04-03T04:49:08;0.55;;;0.50;;
69087;SDS011;56190;43.562;5.036;2023-04-03T04:51:33;0.88;;;0.50;;
69087;SDS011;56190;43.562;5.036;2023-04-03T04:53:59;0.57;;;0.50;;
69087;SDS011;56190;43.562;5.036;2023-04-03T04:56:24;0.60;;;0.60;;
69087;SDS011;56190;43.562;5.036;2023-04-03T04:58:50;0.85;;;0.65;;
69087;SDS011;56190;43.562;5.036;2023-04-03T05:01:15;0.50;;;0.50;;
69087;SDS011;56190;43.562;5.036;2023-04-03T05:03:41;1.63;;;0.90;;
69087;SDS011;56190;43.562;5.036;2023-04-03T05:06:06;0.85;;;0.80;;
69087;SDS011;56190;43.562;5.036;2023-04-03T05:08:32;0.50;;;0.50;;
69087;SDS011;56190;43.562;5.036;2023-04-03T05:10:57;0.70;;;0.60;;
69087;SDS011;56190;43.562;5.036;2023-04-03T05:13:22;1.25;;;0.75;;
69087;SDS011;56190;43.562;5.036;2023-04-03T05:15:47;0.80;;;0.68;;
69087;SDS011;56190;43.562;5.036;2023-04-03T05:18:13;0.63;;;0.63;;
69087;SDS011;56190;43.562;5.036;2023-04-03T05:20:38;0.80;;;0.80;;
69087;SDS011;56190;43.562;5.036;2023-04-03T05:23:03;1.25;;;0.50;;
69087;SDS011;56190;43.562;5.036;2023-04-03T05:25:29;0.70;;;0.70;;
69087;SDS011;56190;43.562;5.036;2023-04-03T05:27:54;1.13;;;0.70;;
69087;SDS011;56190;43.562;5.036;2023-04-03T05:30:19;1.30;;;0.70;;
69087;SDS011;56190;43.562;5.036;2023-04-03T05:32:45;1.08;;;0.65;;
69087;SDS011;56190;43.562;5.036;2023-04-03T05:35:10;1.00;;;0.70;;
69087;SDS011;56190;43.562;5.036;2023-04-03T05:37:36;0.70;;;0.60;;
69087;SDS011;56190;43.562;5.036;2023-04-03T05:40:02;1.10;;;0.80;;
69087;SDS011;56190;43.562;5.036;2023-04-03T05:42:27;0.98;;;0.77;;
69087;SDS011;56190;43.562;5.036;2023-04-03T05:44:53;2.35;;;1.15;;
69087;SDS011;56190;43.562;5.036;2023-04-03T05:47:18;0.80;;;0.70;;
69087;SDS011;56190;43.562;5.036;2023-04-03T05:49:44;0.80;;;0.73;;
69087;SDS011;56190;43.562;5.036;2023-04-03T05:54:51;1.20;;;0.80;;
69087;SDS011;56190;43.562;5.036;2023-04-03T05:57:16;0.70;;;0.70;;
69087;SDS011;56190;43.562;5.036;2023-04-03T05:59:43;0.93;;;0.70;;
69087;SDS011;56190;43.562;5.036;2023-04-03T06:02:12;1.40;;;0.80;;
69087;SDS011;56190;43.562;5.036;2023-04-03T06:04:38;0.93;;;0.77;;
69087;SDS011;56190;43.562;5.036;2023-04-03T06:07:03;1.20;;;0.80;;
69087;SDS011;56190;43.562;5.036;2023-04-03T06:09:29;1.45;;;0.75;;
69087;SDS011;56190;43.562;5.036;2023-04-03T06:11:54;1.23;;;0.80;;
69087;SDS011;56190;43.562;5.036;2023-04-03T06:14:21;1.33;;;1.05;;
69087;SDS011;56190;43.562;5.036;2023-04-03T06:16:46;1.63;;;0.85;;
69087;SDS011;56190;43.562;5.036;2023-04-03T06:19:12;1.05;;;0.98;;
69087;SDS011;56190;43.562;5.036;2023-04-03T06:21:37;2.42;;;0.73;;
69087;SDS011;56190;43.562;5.036;2023-04-03T06:24:03;1.75;;;0.90;;
69087;SDS011;56190;43.562;5.036;2023-04-03T06:26:28;0.90;;;0.70;;
69087;SDS011;56190;43.562;5.036;2023-04-03T06:28:54;0.77;;;0.60;;
69087;SDS011;56190;43.562;5.036;2023-04-03T06:31:19;1.10;;;0.70;;
69087;SDS011;56190;43.562;5.036;2023-04-03T06:33:45;1.15;;;0.70;;
69087;SDS011;56190;43.562;5.036;2023-04-03T06:36:10;1.88;;;0.70;;
69087;SDS011;56190;43.562;5.036;2023-04-03T06:38:36;0.98;;;0.60;;
69087;SDS011;56190;43.562;5.036;2023-04-03T06:41:01;0.70;;;0.70;;
69087;SDS011;56190;43.562;5.036;2023-04-03T06:43:27;0.70;;;0.68;;
69087;SDS011;56190;43.562;5.036;2023-04-03T06:45:52;1.00;;;0.90;;
69087;SDS011;56190;43.562;5.036;2023-04-03T06:48:17;1.00;;;0.63;;
69087;SDS011;56190;43.562;5.036;2023-04-03T06:50:42;1.08;;;0.70;;
69087;SDS011;56190;43.562;5.036;2023-04-03T06:53:08;2.25;;;0.80;;
69087;SDS011;56190;43.562;5.036;2023-04-03T06:55:33;0.73;;;0.70;;
69087;SDS011;56190;43.562;5.036;2023-04-03T06:57:59;0.40;;;0.40;;
69087;SDS011;56190;43.562;5.036;2023-04-03T07:00:24;0.70;;;0.57;;
69087;SDS011;56190;43.562;5.036;2023-04-03T07:02:50;1.17;;;0.77;;
69087;SDS011;56190;43.562;5.036;2023-04-03T07:05:15;1.10;;;0.68;;
69087;SDS011;56190;43.562;5.036;2023-04-03T07:07:40;0.60;;;0.60;;
69087;SDS011;56190;43.562;5.036;2023-04-03T07:10:06;0.90;;;0.70;;
69087;SDS011;56190;43.562;5.036;2023-04-03T07:12:32;0.45;;;0.45;;
69087;SDS011;56190;43.562;5.036;2023-04-03T07:14:57;0.80;;;0.50;;
69087;SDS011;56190;43.562;5.036;2023-04-03T07:17:23;0.80;;;0.57;;
69087;SDS011;56190;43.562;5.036;2023-04-03T07:19:48;0.95;;;0.60;;
69087;SDS011;56190;43.562;5.036;2023-04-03T07:22:13;0.80;;;0.60;;
69087;SDS011;56190;43.562;5.036;2023-04-03T07:24:39;0.57;;;0.57;;
69087;SDS011;56190;43.562;5.036;2023-04-03T07:27:04;0.60;;;0.50;;
69087;SDS011;56190;43.562;5.036;2023-04-03T07:29:30;0.60;;;0.40;;
69087;SDS011;56190;43.562;5.036;2023-04-03T07:31:55;1.15;;;0.55;;
69087;SDS011;56190;43.562;5.036;2023-04-03T07:34:21;1.77;;;0.40;;
69087;SDS011;56190;43.562;5.036;2023-04-03T07:36:46;0.88;;;0.47;;
69087;SDS011;56190;43.562;5.036;2023-04-03T07:39:11;0.40;;;0.40;;
69087;SDS011;56190;43.562;5.036;2023-04-03T07:41:36;1.00;;;0.57;;
69087;SDS011;56190;43.562;5.036;2023-04-03T07:44:02;0.55;;;0.43;;
69087;SDS011;56190;43.562;5.036;2023-04-03T07:46:27;1.73;;;0.50;;
69087;SDS011;56190;43.562;5.036;2023-04-03T07:48:52;0.52;;;0.40;;
69087;SDS011;56190;43.562;5.036;2023-04-03T07:51:18;1.55;;;0.63;;
69087;SDS011;56190;43.562;5.036;2023-04-03T07:53:43;1.00;;;0.50;;
69087;SDS011;56190;43.562;5.036;2023-04-03T07:56:09;0.73;;;0.45;;
69087;SDS011;56190;43.562;5.036;2023-04-03T07:58:34;0.70;;;0.40;;
69087;SDS011;56190;43.562;5.036;2023-04-03T08:01:00;0.63;;;0.40;;
69087;SDS011;56190;43.562;5.036;2023-04-03T08:03:26;1.63;;;0.50;;
69087;SDS011;56190;43.562;5.036;2023-04-03T08:05:51;0.63;;;0.50;;
69087;SDS011;56190;43.562;5.036;2023-04-03T08:08:19;0.45;;;0.43;;
69087;SDS011;56190;43.562;5.036;2023-04-03T08:10:48;0.40;;;0.30;;
69087;SDS011;56190;43.562;5.036;2023-04-03T08:13:13;0.55;;;0.30;;
69087;SDS011;56190;43.562;5.036;2023-04-03T08:15:38;0.93;;;0.40;;
69087;SDS011;56190;43.562;5.036;2023-04-03T08:18:04;0.75;;;0.52;;
69087;SDS011;56190;43.562;5.036;2023-04-03T08:20:29;0.47;;;0.40;;
69087;SDS011;56190;43.562;5.036;2023-04-03T08:22:54;0.90;;;0.45;;
69087;SDS011;56190;43.562;5.036;2023-04-03T08:25:19;1.02;;;0.30;;
69087;SDS011;56190;43.562;5.036;2023-04-03T08:27:45;0.40;;;0.30;;
69087;SDS011;56190;43.562;5.036;2023-04-03T08:30:10;1.48;;;0.50;;
69087;SDS011;56190;43.562;5.036;2023-04-03T08:32:36;0.85;;;0.40;;
69087;SDS011;56190;43.562;5.036;2023-04-03T08:35:02;1.77;;;0.35;;
69087;SDS011;56190;43.562;5.036;2023-04-03T08:37:27;1.88;;;0.50;;
69087;SDS011;56190;43.562;5.036;2023-04-03T08:39:53;1.45;;;0.50;;
69087;SDS011;56190;43.562;5.036;2023-04-03T08:45:00;2.42;;;0.75;;
69087;SDS011;56190;43.562;5.036;2023-04-03T08:47:40;4.60;;;0.70;;
69087;SDS011;56190;43.562;5.036;2023-04-03T08:50:12;4.28;;;0.80;;
69087;SDS011;56190;43.562;5.036;2023-04-03T08:52:45;0.63;;;0.40;;
69087;SDS011;56190;43.562;5.036;2023-04-03T08:55:19;2.10;;;0.40;;
69087;SDS011;56190;43.562;5.036;2023-04-03T08:57:47;1.05;;;0.30;;
69087;SDS011;56190;43.562;5.036;2023-04-03T09:02:49;0.55;;;0.40;;
69087;SDS011;56190;43.562;5.036;2023-04-03T09:05:17;1.02;;;0.30;;
69087;SDS011;56190;43.562;5.036;2023-04-03T09:07:44;0.63;;;0.40;;
69087;SDS011;56190;43.562;5.036;2023-04-03T09:10:11;1.02;;;0.40;;
69087;SDS011;56190;43.562;5.036;2023-04-03T09:12:49;1.23;;;0.30;;
69087;SDS011;56190;43.562;5.036;2023-04-03T09:15:19;0.60;;;0.38;;
69087;SDS011;56190;43.562;5.036;2023-04-03T09:22:56;0.20;;;0.20;;
69087;SDS011;56190;43.562;5.036;2023-04-03T09:25:31;0.40;;;0.20;;
69087;SDS011;56190;43.562;5.036;2023-04-03T09:27:59;0.30;;;0.30;;
69087;SDS011;56190;43.562;5.036;2023-04-03T09:30:25;4.47;;;0.43;;
69087;SDS011;56190;43.562;5.036;2023-04-03T09:32:54;0.47;;;0.25;;
69087;SDS011;56190;43.562;5.036;2023-04-03T09:37:46;1.85;;;0.40;;
69087;SDS011;56190;43.562;5.036;2023-04-03T09:42:49;1.38;;;0.50;;
69087;SDS011;56190;43.562;5.036;2023-04-03T09:45:36;0.82;;;0.30;;
69087;SDS011;56190;43.562;5.036;2023-04-03T09:50:29;0.40;;;0.30;;
69087;SDS011;56190;43.562;5.036;2023-04-03T09:52:55;0.88;;;0.30;;
69087;SDS011;56190;43.562;5.036;2023-04-03T09:55:21;1.13;;;0.40;;
69087;SDS011;56190;43.562;5.036;2023-04-03T09:57:51;1.52;;;0.40;;
69087;SDS011;56190;43.562;5.036;2023-04-03T10:00:21;0.88;;;0.30;;
69087;SDS011;56190;43.562;5.036;2023-04-03T10:02:49;0.30;;;0.30;;
69087;SDS011;56190;43.562;5.036;2023-04-03T10:05:25;0.50;;;0.43;;
69087;SDS011;56190;43.562;5.036;2023-04-03T10:07:51;1.48;;;0.47;;
69087;SDS011;56190;43.562;5.036;2023-04-03T10:12:43;1.60;;;0.30;;
69087;SDS011;56190;43.562;5.036;2023-04-03T10:15:11;0.70;;;0.30;;
69087;SDS011;56190;43.562;5.036;2023-04-03T10:17:54;1.75;;;0.20;;
69087;SDS011;56190;43.562;5.036;2023-04-03T10:25:40;2.10;;;0.35;;
69087;SDS011;56190;43.562;5.036;2023-04-03T10:28:12;0.28;;;0.20;;
69087;SDS011;56190;43.562;5.036;2023-04-03T10:38:43;1.40;;;0.30;;
69087;SDS011;56190;43.562;5.036;2023-04-03T10:49:13;3.60;;;0.50;;
69087;SDS011;56190;43.562;5.036;2023-04-03T10:56:39;1.33;;;0.30;;
69087;SDS011;56190;43.562;5.036;2023-04-03T11:01:37;1.10;;;0.30;;
69087;SDS011;56190;43.562;5.036;2023-04-03T11:04:05;0.45;;;0.43;;
69087;SDS011;56190;43.562;5.036;2023-04-03T11:06:35;1.35;;;0.35;;
69087;SDS011;56190;43.562;5.036;2023-04-03T11:09:05;0.30;;;0.25;;
69087;SDS011;56190;43.562;5.036;2023-04-03T11:11:33;0.82;;;0.30;;
69087;SDS011;56190;43.562;5.036;2023-04-03T11:14:05;0.47;;;0.20;;
69087;SDS011;56190;43.562;5.036;2023-04-03T11:16:36;1.23;;;0.30;;
69087;SDS011;56190;43.562;5.036;2023-04-03T11:19:29;1.08;;;0.30;;
69087;SDS011;56190;43.562;5.036;2023-04-03T11:22:14;1.73;;;0.40;;
69087;SDS011;56190;43.562;5.036;2023-04-03T11:24:42;2.38;;;0.45;;
69087;SDS011;56190;43.562;5.036;2023-04-03T11:27:11;0.40;;;0.40;;
69087;SDS011;56190;43.562;5.036;2023-04-03T11:29:39;1.30;;;0.30;;
69087;SDS011;56190;43.562;5.036;2023-04-03T11:32:16;1.85;;;0.40;;
69087;SDS011;56190;43.562;5.036;2023-04-03T11:34:46;2.63;;;0.47;;
69087;SDS011;56190;43.562;5.036;2023-04-03T11:37:35;1.65;;;0.50;;
69087;SDS011;56190;43.562;5.036;2023-04-03T11:40:02;1.05;;;0.32;;
69087;SDS011;56190;43.562;5.036;2023-04-03T11:42:32;1.48;;;0.40;;
69087;SDS011;56190;43.562;5.036;2023-04-03T11:53:42;3.10;;;0.77;;
69087;SDS011;56190;43.562;5.036;2023-04-03T12:21:15;1.38;;;0.40;;
69087;SDS011;56190;43.562;5.036;2023-04-03T12:29:26;0.88;;;0.55;;
69087;SDS011;56190;43.562;5.036;2023-04-03T12:37:17;1.60;;;0.57;;
69087;SDS011;56190;43.562;5.036;2023-04-03T12:44:45;0.95;;;0.47;;
69087;SDS011;56190;43.562;5.036;2023-04-03T12:47:19;1.77;;;0.80;;
69087;SDS011;56190;43.562;5.036;2023-04-03T12:49:47;0.55;;;0.55;;
69087;SDS011;56190;43.562;5.036;2023-04-03T12:52:19;2.72;;;0.52;;
69087;SDS011;56190;43.562;5.036;2023-04-03T12:54:47;6.05;;;0.82;;
69087;SDS011;56190;43.562;5.036;2023-04-03T12:57:16;1.77;;;0.60;;
69087;SDS011;56190;43.562;5.036;2023-04-03T12:59:42;1.02;;;0.82;;
69087;SDS011;56190;43.562;5.036;2023-04-03T13:02:20;3.25;;;0.82;;
69087;SDS011;56190;43.562;5.036;2023-04-03T13:04:46;1.45;;;0.88;;
69087;SDS011;56190;43.562;5.036;2023-04-03T13:07:19;2.83;;;0.70;;
69087;SDS011;56190;43.562;5.036;2023-04-03T13:09:47;2.13;;;0.90;;
69087;SDS011;56190;43.562;5.036;2023-04-03T13:12:19;1.13;;;0.70;;
69087;SDS011;56190;43.562;5.036;2023-04-03T13:14:52;2.30;;;0.60;;
69087;SDS011;56190;43.562;5.036;2023-04-03T13:17:19;1.42;;;0.80;;
69087;SDS011;56190;43.562;5.036;2023-04-03T13:19:44;2.08;;;0.70;;
69087;SDS011;56190;43.562;5.036;2023-04-03T13:24:56;2.35;;;0.60;;
69087;SDS011;56190;43.562;5.036;2023-04-03T13:27:21;0.98;;;0.70;;
69087;SDS011;56190;43.562;5.036;2023-04-03T13:29:51;0.75;;;0.60;;
69087;SDS011;56190;43.562;5.036;2023-04-03T13:32:19;2.85;;;0.90;;
69087;SDS011;56190;43.562;5.036;2023-04-03T13:34:45;2.42;;;0.60;;
69087;SDS011;56190;43.562;5.036;2023-04-03T13:37:21;2.67;;;0.63;;
69087;SDS011;56190;43.562;5.036;2023-04-03T13:39:55;2.55;;;0.95;;
69087;SDS011;56190;43.562;5.036;2023-04-03T13:42:25;2.08;;;0.75;;
69087;SDS011;56190;43.562;5.036;2023-04-03T13:47:39;0.80;;;0.73;;
69087;SDS011;56190;43.562;5.036;2023-04-03T13:52:31;4.80;;;1.20;;
69087;SDS011;56190;43.562;5.036;2023-04-03T13:55:02;1.92;;;0.80;;
69087;SDS011;56190;43.562;5.036;2023-04-03T13:57:28;1.70;;;0.98;;
69087;SDS011;56190;43.562;5.036;2023-04-03T13:59:53;3.15;;;0.68;;
69087;SDS011;56190;43.562;5.036;2023-04-03T14:07:09;2.77;;;0.70;;
69087;SDS011;56190;43.562;5.036;2023-04-03T14:09:35;2.85;;;1.05;;
69087;SDS011;56190;43.562;5.036;2023-04-03T14:12:24;7.80;;;1.08;;
69087;SDS011;56190;43.562;5.036;2023-04-03T14:14:46;2.00;;;0.77;;
69087;SDS011;56190;43.562;5.036;2023-04-03T14:17:16;2.30;;;1.13;;
69087;SDS011;56190;43.562;5.036;2023-04-03T14:19:42;2.50;;;1.05;;
69087;SDS011;56190;43.562;5.036;2023-04-03T14:22:13;4.10;;;0.93;;
69087;SDS011;56190;43.562;5.036;2023-04-03T14:24:39;2.07;;;0.90;;
69087;SDS011;56190;43.562;5.036;2023-04-03T14:27:05;3.70;;;1.10;;
69087;SDS011;56190;43.562;5.036;2023-04-03T14:29:36;1.80;;;1.00;;
69087;SDS011;56190;43.562;5.036;2023-04-03T14:32:01;0.70;;;0.70;;
69087;SDS011;56190;43.562;5.036;2023-04-03T14:34:26;2.20;;;0.73;;
69087;SDS011;56190;43.562;5.036;2023-04-03T14:36:52;1.25;;;1.00;;
69087;SDS011;56190;43.562;5.036;2023-04-03T14:39:18;1.73;;;1.10;;
69087;SDS011;56190;43.562;5.036;2023-04-03T14:41:43;1.42;;;0.68;;
69087;SDS011;56190;43.562;5.036;2023-04-03T14:44:08;1.85;;;1.00;;
69087;SDS011;56190;43.562;5.036;2023-04-03T14:46:34;3.00;;;1.13;;
69087;SDS011;56190;43.562;5.036;2023-04-03T14:49:01;2.92;;;0.93;;
69087;SDS011;56190;43.562;5.036;2023-04-03T14:51:27;1.98;;;1.02;;
69087;SDS011;56190;43.562;5.036;2023-04-03T14:53:52;3.35;;;1.10;;
69087;SDS011;56190;43.562;5.036;2023-04-03T14:58:44;2.53;;;1.00;;
69087;SDS011;56190;43.562;5.036;2023-04-03T15:01:14;3.28;;;1.17;;
69087;SDS011;56190;43.562;5.036;2023-04-03T15:03:39;2.53;;;0.95;;
69087;SDS011;56190;43.562;5.036;2023-04-03T15:06:05;3.67;;;1.17;;
69087;SDS011;56190;43.562;5.036;2023-04-03T15:08:30;2.70;;;0.90;;
69087;SDS011;56190;43.562;5.036;2023-04-03T15:10:56;2.97;;;1.45;;
69087;SDS011;56190;43.562;5.036;2023-04-03T15:13:21;3.75;;;1.10;;
69087;SDS011;56190;43.562;5.036;2023-04-03T15:15:47;2.70;;;1.50;;
69087;SDS011;56190;43.562;5.036;2023-04-03T15:18:17;4.40;;;1.50;;
69087;SDS011;56190;43.562;5.036;2023-04-03T15:20:43;4.82;;;1.27;;
69087;SDS011;56190;43.562;5.036;2023-04-03T15:23:09;4.13;;;1.30;;
69087;SDS011;56190;43.562;5.036;2023-04-03T15:25:35;1.67;;;1.23;;
69087;SDS011;56190;43.562;5.036;2023-04-03T15:28:00;2.78;;;1.10;;
69087;SDS011;56190;43.562;5.036;2023-04-03T15:30:26;3.40;;;1.30;;
69087;SDS011;56190;43.562;5.036;2023-04-03T15:32:51;2.53;;;1.25;;
69087;SDS011;56190;43.562;5.036;2023-04-03T15:35:18;3.28;;;1.27;;
69087;SDS011;56190;43.562;5.036;2023-04-03T15:37:43;3.38;;;1.50;;
69087;SDS011;56190;43.562;5.036;2023-04-03T15:40:08;3.88;;;1.30;;
69087;SDS011;56190;43.562;5.036;2023-04-03T15:42:34;3.30;;;1.30;;
69087;SDS011;56190;43.562;5.036;2023-04-03T15:44:59;2.97;;;1.50;;
69087;SDS011;56190;43.562;5.036;2023-04-03T15:47:25;1.40;;;1.20;;
69087;SDS011;56190;43.562;5.036;2023-04-03T15:49:51;3.42;;;1.55;;
69087;SDS011;56190;43.562;5.036;2023-04-03T15:52:16;2.17;;;1.50;;
69087;SDS011;56190;43.562;5.036;2023-04-03T15:54:41;2.92;;;1.20;;
69087;SDS011;56190;43.562;5.036;2023-04-03T15:57:07;2.85;;;1.33;;
69087;SDS011;56190;43.562;5.036;2023-04-03T15:59:32;2.80;;;1.00;;
69087;SDS011;56190;43.562;5.036;2023-04-03T16:01:57;4.10;;;1.10;;
69087;SDS011;56190;43.562;5.036;2023-04-03T16:04:23;4.85;;;1.25;;
69087;SDS011;56190;43.562;5.036;2023-04-03T16:06:48;2.30;;;1.10;;
69087;SDS011;56190;43.562;5.036;2023-04-03T16:09:14;6.15;;;1.45;;
69087;SDS011;56190;43.562;5.036;2023-04-03T16:11:40;4.20;;;1.33;;
69087;SDS011;56190;43.562;5.036;2023-04-03T16:14:08;3.63;;;1.42;;
69087;SDS011;56190;43.562;5.036;2023-04-03T16:16:34;8.75;;;1.50;;
69087;SDS011;56190;43.562;5.036;2023-04-03T16:18:59;2.33;;;1.48;;
69087;SDS011;56190;43.562;5.036;2023-04-03T16:21:24;4.22;;;1.52;;
69087;SDS011;56190;43.562;5.036;2023-04-03T16:23:51;3.22;;;1.33;;
69087;SDS011;56190;43.562;5.036;2023-04-03T16:26:17;6.25;;;1.50;;
69087;SDS011;56190;43.562;5.036;2023-04-03T16:28:45;4.38;;;1.27;;
69087;SDS011;56190;43.562;5.036;2023-04-03T16:31:10;6.13;;;1.80;;
69087;SDS011;56190;43.562;5.036;2023-04-03T16:33:35;5.20;;;1.88;;
69087;SDS011;56190;43.562;5.036;2023-04-03T16:36:02;5.05;;;1.52;;
69087;SDS011;56190;43.562;5.036;2023-04-03T16:38:28;3.47;;;1.30;;
69087;SDS011;56190;43.562;5.036;2023-04-03T16:40:53;2.85;;;1.13;;
69087;SDS011;56190;43.562;5.036;2023-04-03T16:43:21;1.65;;;1.15;;
69087;SDS011;56190;43.562;5.036;2023-04-03T16:45:47;3.33;;;1.30;;
69087;SDS011;56190;43.562;5.036;2023-04-03T16:48:12;2.85;;;1.50;;